Hudson, NH

4:23 AM EST on December 29, 2014 (GMT -0500)
APRSWXNET Litchfield NH US | Change Station
CLOSE
Current Station
Personal Weather Station
Location: Hudson, NH
Elevation: 180 ft
Nearby Weather Stations

Elev 180 ft 42.81 °N, 71.43 °W | Updated 39 minutes ago

Clear
Clear
30.0 °F
Feels Like 30.0 °F
N
1.0
Wind Variable Wind from West
Gusts 3.0 mph

Today
High -- | Low -- °F
--% Chance of Precip.
Yesterday
High -- | Low -- °F
Precip. -- in
7:15 AM 4:19 PM
First Quarter, 57% visible
Pressure 30.81 in
Visibility 10.0 miles
Clouds Clear
Dew Point 23.0 °F
Humidity 74%
Rainfall 0.05 in
Snow Depth Not available.
UV 0 out of 12
Pollen .10 out of 12
Air Quality Not available.
Flu Activity Not available.
METAR KASH 290851Z AUTO 00000KT 10SM CLR M01/M06 A3006 RMK AO2 51020 T10051055 SLP433

More Conditions Fewer Conditions

Pressure 30.81 in
Visibility 10.0 miles
Clouds Clear
Dew Point 23.0 °F
Humidity 74%
Rainfall 0.05 in
Snow Depth Not available.
UV 0 out of 12
Pollen .10 out of 12
Air Quality Not available.
Flu Activity Not available.
METAR KASH 290851Z AUTO 00000KT 10SM CLR M01/M06 A3006 RMK AO2 51020 T10051055 SLP433

More Conditions Fewer Conditions

10-Day Weather Forecast

Almanac

Astronomy

Dec. 29, 2014 Rise Set
Actual Time
Civil Twilight
Nautical Twilight
Astronomical Twilight
Moon
Length of Visible Light
Length of Day
Tomorrow will be .
, % of the Moon is Illuminated

Today's Extremes

State Highs State Lows

Community

WunderPhotos

Upload Photos

1,781,562 photos uploaded!

WunderBlogs® & News

Nearby

Air Quality

  Air Quality AQ Index Pollutant
Not available.

Snow Depth

Station Depth Elevation

Earthquake Activity

City Distance Mag. Time & Date
Minimum magnitude displayed is 2.5.

Coastal Water Temperatures

Place Temperature

Nearby Weather Stations